Time;durP1;ratioP1;P1;durP2;ratioP2;P2;SDS_P1;SDS_P2;PMS_P1;PMS_P2;Temp;Humidity;BMP_temperature;BMP_pressure;BME280_temperature;BME280_humidity;BME280_pressure;Samples;Min_cycle;Max_cycle;Signal;HPM_P1;HPM_P2
2022/05/20 00:00:46;;;;;;;5.47;4.27;;;19.00;99.90;;;;;;5112595;28;20460;-71
2022/05/20 00:03:13;;;;;;;4.97;4.50;;;19.00;99.90;;;;;;5112545;28;21030;-70
2022/05/20 00:05:40;;;;;;;5.00;4.60;;;18.90;99.90;;;;;;5112217;28;20460;-72
2022/05/20 00:08:08;;;;;;;6.07;4.73;;;19.00;99.90;;;;;;5112092;28;20461;-71
2022/05/20 00:10:35;;;;;;;5.23;4.73;;;19.00;99.90;;;;;;5112267;28;20457;-71
2022/05/20 00:13:03;;;;;;;5.10;4.47;;;18.90;99.90;;;;;;5112240;28;20484;-71
2022/05/20 00:15:31;;;;;;;6.90;5.23;;;18.90;99.90;;;;;;5111967;28;20479;-71
2022/05/20 00:17:58;;;;;;;6.70;5.47;;;18.80;99.90;;;;;;5112316;28;20464;-71
2022/05/20 00:20:27;;;;;;;6.10;4.80;;;18.80;99.90;;;;;;5112014;28;20468;-70
2022/05/20 00:22:54;;;;;;;5.33;4.83;;;18.80;99.90;;;;;;5112206;28;20489;-71
2022/05/20 00:28:08;;;;;;;5.30;4.80;;;18.70;99.90;;;;;;5111449;28;20530;-71
2022/05/20 00:30:36;;;;;;;5.33;4.83;;;18.60;99.90;;;;;;5112101;28;20452;-71
2022/05/20 00:33:03;;;;;;;5.77;5.07;;;18.50;99.90;;;;;;5111948;28;20472;-71
2022/05/20 00:35:30;;;;;;;5.40;4.73;;;18.40;99.90;;;;;;5111734;28;20472;-71
2022/05/20 00:37:57;;;;;;;5.00;4.60;;;18.40;99.90;;;;;;5112068;28;20793;-72
2022/05/20 00:40:27;;;;;;;5.67;5.13;;;18.30;99.90;;;;;;5112045;28;20456;-71
2022/05/20 00:43:07;;;;;;;5.77;4.77;;;18.20;99.90;;;;;;5111518;28;20832;-71
2022/05/20 00:45:35;;;;;;;6.13;5.53;;;18.20;99.90;;;;;;5111660;28;20457;-71
2022/05/20 00:48:02;;;;;;;6.60;5.27;;;18.10;99.90;;;;;;5111330;28;20460;-71
2022/05/20 00:50:29;;;;;;;5.73;4.83;;;18.10;99.90;;;;;;5111502;28;20467;-71
2022/05/20 00:52:57;;;;;;;7.10;5.00;;;18.10;99.90;;;;;;5111743;28;20500;-71
2022/05/20 00:55:24;;;;;;;5.03;4.50;;;18.10;99.90;;;;;;5111438;28;20468;-71
2022/05/20 00:57:56;;;;;;;5.40;4.90;;;18.10;99.90;;;;;;5111234;28;20468;-71
2022/05/20 01:00:25;;;;;;;6.97;4.70;;;18.10;99.90;;;;;;5111084;28;20560;-71
2022/05/20 01:02:57;;;;;;;5.83;5.23;;;18.10;99.90;;;;;;5111194;28;20492;-71
2022/05/20 01:05:27;;;;;;;6.80;5.23;;;18.00;99.90;;;;;;5111161;28;20460;-72
2022/05/20 01:07:55;;;;;;;5.10;4.70;;;18.10;99.90;;;;;;5111344;28;20460;-71
2022/05/20 01:10:23;;;;;;;6.10;5.03;;;18.00;99.90;;;;;;5111052;28;20452;-71
2022/05/20 01:12:50;;;;;;;5.77;5.00;;;18.00;99.90;;;;;;5110980;28;20481;-70
2022/05/20 01:15:17;;;;;;;5.23;4.70;;;18.00;99.90;;;;;;5111366;28;20492;-71
2022/05/20 01:17:45;;;;;;;5.10;4.70;;;18.00;99.90;;;;;;5111133;28;20464;-71
2022/05/20 01:20:18;;;;;;;5.53;5.03;;;17.90;99.90;;;;;;5110915;28;20464;-71
2022/05/20 01:23:00;;;;;;;5.50;4.67;;;17.90;99.90;;;;;;5110818;28;20851;-71
2022/05/20 01:25:29;;;;;;;5.30;4.80;;;17.80;99.90;;;;;;5111166;28;20457;-71
2022/05/20 01:27:55;;;;;;;7.90;5.40;;;17.80;99.90;;;;;;5110806;28;20456;-71
2022/05/20 01:30:25;;;;;;;5.53;5.03;;;17.80;99.90;;;;;;5110835;28;20547;-71
2022/05/20 01:32:52;;;;;;;8.53;5.43;;;17.80;99.90;;;;;;5110669;28;20487;-71
2022/05/20 01:35:24;;;;;;;10.13;6.53;;;17.70;99.90;;;;;;5111003;28;20475;-71
2022/05/20 01:37:52;;;;;;;8.00;5.10;;;17.80;99.90;;;;;;5111021;28;20452;-71
2022/05/20 01:40:19;;;;;;;6.80;5.47;;;17.80;99.90;;;;;;5110183;28;20460;-71
2022/05/20 01:42:51;;;;;;;5.80;5.30;;;17.80;99.90;;;;;;5110700;28;21017;-70
2022/05/20 01:45:29;;;;;;;6.47;5.40;;;17.70;99.90;;;;;;5110870;28;20465;-71
2022/05/20 01:48:02;;;;;;;7.13;4.83;;;17.70;99.90;;;;;;5110951;28;20464;-71
2022/05/20 01:50:34;;;;;;;5.77;4.70;;;17.70;99.90;;;;;;5110618;28;20988;-71
2022/05/20 01:53:05;;;;;;;7.47;5.10;;;17.80;99.90;;;;;;5111008;28;20472;-71
2022/05/20 01:55:39;;;;;;;6.70;5.00;;;17.80;99.90;;;;;;5110539;28;20468;-71
2022/05/20 01:58:12;;;;;;;5.80;5.20;;;17.80;99.90;;;;;;5110596;28;20461;-71
2022/05/20 02:00:41;;;;;;;7.00;5.03;;;17.80;99.90;;;;;;5110619;28;20461;-71
2022/05/20 02:03:14;;;;;;;7.43;5.57;;;17.80;99.90;;;;;;5111142;28;20485;-71
2022/05/20 02:05:45;;;;;;;8.10;5.27;;;17.70;99.90;;;;;;5110861;28;20521;-70
2022/05/20 02:08:20;;;;;;;6.47;5.30;;;17.70;99.90;;;;;;5110083;28;20457;-71
2022/05/20 02:10:53;;;;;;;6.50;5.07;;;17.70;99.90;;;;;;5114811;28;20841;-71
2022/05/20 02:13:21;;;;;;;5.90;5.27;;;17.80;99.90;;;;;;5114431;28;20472;-71
2022/05/20 02:15:51;;;;;;;6.97;4.97;;;17.80;99.90;;;;;;5114879;28;20819;-70
2022/05/20 02:18:20;;;;;;;7.07;5.47;;;17.80;99.90;;;;;;5113932;28;20464;-71
2022/05/20 02:20:50;;;;;;;4.87;4.47;;;17.80;99.90;;;;;;5114504;28;20453;-71
2022/05/20 02:23:21;;;;;;;5.20;4.70;;;17.70;99.90;;;;;;5114158;28;20484;-70
2022/05/20 02:25:52;;;;;;;8.50;4.90;;;17.60;99.90;;;;;;5114451;28;20827;-71
2022/05/20 02:28:21;;;;;;;5.63;5.10;;;17.60;99.90;;;;;;5113802;28;20460;-71
2022/05/20 02:30:50;;;;;;;7.40;4.80;;;17.50;99.90;;;;;;5114429;28;20453;-71
2022/05/20 02:33:21;;;;;;;6.70;6.03;;;17.50;99.90;;;;;;5114160;28;20856;-71
2022/05/20 02:35:48;;;;;;;5.07;4.57;;;17.50;99.90;;;;;;5114189;28;20456;-71
2022/05/20 02:38:19;;;;;;;5.47;4.87;;;17.40;99.90;;;;;;5113856;28;20463;-71
2022/05/20 02:40:49;;;;;;;7.53;5.40;;;17.30;99.90;;;;;;5113836;28;20463;-71
2022/05/20 02:43:16;;;;;;;5.30;4.80;;;17.30;99.90;;;;;;5114140;28;20520;-71
2022/05/20 02:45:44;;;;;;;5.57;5.07;;;17.30;99.90;;;;;;5113910;28;20456;-71
2022/05/20 02:48:13;;;;;;;6.07;5.50;;;17.20;99.90;;;;;;5231428;22;20485;-69
2022/05/20 02:50:39;;;;;;;5.50;4.90;;;17.20;99.90;;;;;;5093413;28;20457;-69
2022/05/20 02:53:06;;;;;;;8.43;5.50;;;17.10;99.90;;;;;;5073663;28;20470;-69
2022/05/20 02:55:35;;;;;;;6.97;4.70;;;17.10;99.90;;;;;;5073303;28;20470;-69
2022/05/20 02:58:01;;;;;;;7.43;5.17;;;17.00;99.90;;;;;;5073166;28;20465;-68
2022/05/20 03:05:59;;;;;;;5.80;5.00;;;16.90;99.90;;;;;;5073704;28;20438;-69
2022/05/20 03:08:26;;;;;;;6.20;5.60;;;16.90;99.90;;;;;;5071258;28;20462;-69
2022/05/20 03:10:54;;;;;;;6.00;5.37;;;16.90;99.90;;;;;;5073099;28;20459;-69
2022/05/20 03:13:21;;;;;;;5.63;5.03;;;16.90;99.90;;;;;;5072776;28;20840;-69
2022/05/20 03:15:47;;;;;;;6.60;6.00;;;16.80;99.90;;;;;;5073063;28;20469;-69
2022/05/20 03:18:15;;;;;;;7.07;5.77;;;16.80;99.90;;;;;;5072207;28;20957;-70
2022/05/20 03:20:42;;;;;;;7.33;5.27;;;16.80;99.90;;;;;;5072817;28;20880;-69
2022/05/20 03:23:10;;;;;;;5.90;5.40;;;16.70;99.90;;;;;;5072507;28;20487;-70
2022/05/20 03:25:37;;;;;;;6.30;5.70;;;16.70;99.90;;;;;;5072716;28;20494;-70
2022/05/20 03:28:05;;;;;;;8.57;6.13;;;16.70;99.90;;;;;;5072394;28;21180;-69
2022/05/20 03:30:32;;;;;;;9.67;5.70;;;16.80;99.90;;;;;;5072676;28;20462;-70
2022/05/20 03:32:59;;;;;;;6.37;5.67;;;16.80;99.90;;;;;;5072550;28;20840;-70
2022/05/20 03:35:26;;;;;;;7.60;5.40;;;16.80;99.90;;;;;;5072672;28;20459;-71
2022/05/20 03:37:52;;;;;;;5.80;5.27;;;16.80;99.90;;;;;;5072559;28;20466;-69
2022/05/20 03:40:19;;;;;;;6.90;5.93;;;16.80;99.90;;;;;;5072199;28;20469;-70
2022/05/20 03:42:46;;;;;;;5.90;5.30;;;16.80;99.90;;;;;;5072836;28;20852;-70
2022/05/20 03:45:14;;;;;;;8.73;6.13;;;16.80;99.90;;;;;;5072548;28;20461;-70
2022/05/20 03:47:41;;;;;;;7.13;6.10;;;16.80;99.90;;;;;;5072361;28;20462;-68
2022/05/20 03:50:08;;;;;;;8.47;5.30;;;16.80;99.90;;;;;;5071940;28;20470;-69
2022/05/20 03:52:35;;;;;;;6.27;5.67;;;16.90;99.90;;;;;;5072013;28;20489;-69
2022/05/20 03:55:02;;;;;;;6.07;5.57;;;16.90;99.90;;;;;;5072169;28;20461;-69
2022/05/20 03:57:29;;;;;;;6.03;5.43;;;16.90;99.90;;;;;;5072253;28;20469;-70
2022/05/20 03:59:56;;;;;;;6.23;5.63;;;17.00;99.90;;;;;;5071656;28;20469;-69
2022/05/20 04:02:23;;;;;;;5.73;5.03;;;17.00;99.90;;;;;;5072122;28;20478;-69
2022/05/20 04:04:52;;;;;;;5.70;4.57;;;17.10;99.90;;;;;;5091405;28;20620;-69
2022/05/20 04:07:24;;;;;;;4.63;4.23;;;17.10;99.90;;;;;;5091886;28;20458;-69
2022/05/20 04:09:51;;;;;;;5.20;4.50;;;17.30;99.90;;;;;;5090940;28;20822;-68
2022/05/20 04:12:24;;;;;;;6.53;5.20;;;17.40;99.90;;;;;;5092185;28;20458;-70
2022/05/20 04:14:51;;;;;;;4.63;4.23;;;17.60;99.90;;;;;;5091825;28;20818;-69
2022/05/20 04:17:17;;;;;;;5.33;4.60;;;17.60;99.90;;;;;;5092496;28;20814;-69
2022/05/20 04:19:46;;;;;;;6.37;4.50;;;17.70;99.90;;;;;;5090576;28;20528;-70
2022/05/20 04:22:15;;;;;;;4.90;4.40;;;17.80;99.90;;;;;;5091681;28;20474;-69
2022/05/20 04:24:42;;;;;;;4.90;4.50;;;17.80;99.90;;;;;;5091004;28;20477;-69
2022/05/20 04:27:09;;;;;;;8.23;4.40;;;17.90;99.90;;;;;;5091841;28;20465;-69
2022/05/20 04:29:36;;;;;;;5.90;4.13;;;18.00;99.90;;;;;;5089635;28;20457;-70
2022/05/20 04:32:03;;;;;;;4.60;4.20;;;18.10;99.90;;;;;;5090476;28;20478;-69
2022/05/20 04:36:59;;;;;;;5.70;4.30;;;18.20;99.90;;;;;;5089451;28;21051;-71
2022/05/20 04:39:27;;;;;;;4.97;4.57;;;18.20;99.90;;;;;;5091052;28;20847;-70
2022/05/20 04:47:25;;;;;;;5.00;4.50;;;18.20;99.90;;;;;;5089669;28;20437;-71
2022/05/20 04:49:52;;;;;;;4.27;3.90;;;18.30;99.90;;;;;;5090411;28;20458;-70
2022/05/20 04:52:21;;;;;;;4.83;4.43;;;18.30;99.90;;;;;;5091544;28;20478;-70
2022/05/20 04:54:50;;;;;;;4.70;4.30;;;18.30;99.90;;;;;;5091118;28;20461;-70
2022/05/20 04:57:22;;;;;;;5.67;3.60;;;18.40;99.90;;;;;;5091404;28;20461;-70
2022/05/20 04:59:51;;;;;;;5.30;4.40;;;18.40;99.90;;;;;;5090817;28;20465;-70
2022/05/20 05:02:18;;;;;;;4.57;4.17;;;18.50;99.90;;;;;;5091129;28;21019;-70
2022/05/20 05:04:45;;;;;;;5.33;4.80;;;18.50;99.90;;;;;;5090943;28;20481;-70
2022/05/20 05:07:11;;;;;;;6.40;4.30;;;18.60;99.90;;;;;;5091242;28;20556;-70
2022/05/20 05:09:41;;;;;;;4.90;4.40;;;18.60;99.90;;;;;;5090223;28;20464;-72
2022/05/20 05:12:09;;;;;;;4.70;4.17;;;18.70;99.90;;;;;;5091263;28;20481;-69
2022/05/20 05:14:37;;;;;;;4.80;4.30;;;18.80;99.90;;;;;;5090726;28;20457;-70
2022/05/20 05:17:06;;;;;;;4.30;3.90;;;18.90;99.90;;;;;;5091139;28;20492;-70
2022/05/20 05:19:36;;;;;;;7.43;4.00;;;18.90;99.90;;;;;;5090375;28;20465;-71
2022/05/20 05:22:03;;;;;;;5.17;4.53;;;19.00;99.90;;;;;;5090988;28;20513;-69
2022/05/20 05:24:29;;;;;;;6.00;4.40;;;19.10;99.90;;;;;;5090878;28;20831;-71
2022/05/20 05:26:57;;;;;;;7.83;4.40;;;19.10;99.90;;;;;;5090512;28;20457;-70
2022/05/20 05:29:24;;;;;;;6.27;4.17;;;19.20;99.90;;;;;;5090353;28;20457;-71
2022/05/20 05:31:51;;;;;;;6.00;4.13;;;19.20;99.90;;;;;;5090506;28;21014;-69
2022/05/20 05:34:18;;;;;;;5.10;4.60;;;19.30;99.90;;;;;;5091146;28;20464;-70
2022/05/20 05:36:44;;;;;;;4.40;4.00;;;19.30;99.90;;;;;;5090557;28;20470;-69
2022/05/20 05:39:11;;;;;;;6.77;4.60;;;19.40;99.90;;;;;;5090459;28;20872;-70
2022/05/20 05:41:38;;;;;;;6.23;5.00;;;19.40;99.90;;;;;;5090675;28;20872;-71
2022/05/20 05:44:07;;;;;;;7.73;4.63;;;19.50;99.90;;;;;;5091735;28;21004;-70
2022/05/20 05:46:33;;;;;;;6.27;4.40;;;19.60;99.90;;;;;;5094983;28;20472;-70
2022/05/20 05:49:00;;;;;;;5.37;4.00;;;19.70;99.90;;;;;;5089814;28;21035;-70
2022/05/20 05:51:28;;;;;;;4.67;3.93;;;19.70;99.90;;;;;;5093866;28;20497;-71
2022/05/20 05:53:56;;;;;;;4.87;4.40;;;19.80;99.90;;;;;;5091572;28;20454;-70
2022/05/20 05:56:23;;;;;;;5.27;4.60;;;19.90;99.90;;;;;;5093372;28;20465;-71
2022/05/20 05:58:50;;;;;;;6.37;3.97;;;20.00;99.90;;;;;;5091742;28;20473;-71
2022/05/20 06:01:18;;;;;;;6.73;4.13;;;20.00;99.90;;;;;;5093966;28;20484;-68
2022/05/20 06:03:45;;;;;;;4.67;4.30;;;20.10;99.90;;;;;;5093585;28;20481;-68
2022/05/20 06:06:12;;;;;;;5.07;4.57;;;20.10;99.90;;;;;;5094122;28;20827;-69
2022/05/20 06:08:39;;;;;;;6.50;4.43;;;20.10;99.90;;;;;;5093483;28;20458;-70
2022/05/20 06:11:06;;;;;;;4.70;4.13;;;20.10;99.90;;;;;;5093477;28;20461;-72
2022/05/20 06:13:35;;;;;;;6.73;4.70;;;20.10;99.90;;;;;;5094029;28;20519;-71
2022/05/20 06:16:03;;;;;;;4.93;4.43;;;20.20;99.90;;;;;;5093874;28;20460;-69
2022/05/20 06:18:31;;;;;;;4.50;3.90;;;20.30;99.90;;;;;;5092939;28;20461;-69
2022/05/20 06:20:58;;;;;;;5.23;4.20;;;20.40;99.90;;;;;;5093795;28;20465;-70
2022/05/20 06:23:25;;;;;;;4.13;3.80;;;20.50;99.90;;;;;;5093532;28;20505;-70
2022/05/20 06:25:53;;;;;;;4.37;3.97;;;20.50;99.90;;;;;;5093725;28;20453;-70
2022/05/20 06:28:20;;;;;;;5.60;4.33;;;20.60;99.90;;;;;;5093724;28;20453;-69
2022/05/20 06:30:47;;;;;;;4.40;4.00;;;20.70;99.90;;;;;;5093806;28;20454;-70
2022/05/20 06:33:14;;;;;;;4.50;4.10;;;20.90;99.90;;;;;;5090853;28;20477;-70
2022/05/20 06:41:11;;;;;;;3.90;3.50;;;21.20;99.90;;;;;;5091071;28;20490;-70
2022/05/20 06:43:39;;;;;;;4.40;4.03;;;21.40;99.90;;;;;;5093199;28;20465;-71
2022/05/20 06:46:05;;;;;;;5.20;4.70;;;21.50;99.90;;;;;;5093746;28;20869;-69
2022/05/20 06:48:43;;;;;;;3.97;3.67;;;21.60;99.90;;;;;;5092154;28;20591;-70
2022/05/20 06:51:15;;;;;;;6.30;4.63;;;21.70;99.90;;;;;;5093537;28;20456;-70
2022/05/20 06:53:43;;;;;;;4.17;3.87;;;21.80;99.90;;;;;;5092821;28;20458;-69
2022/05/20 06:56:10;;;;;;;4.13;3.70;;;21.90;99.90;;;;;;5092783;28;20514;-69
2022/05/20 06:58:37;;;;;;;4.30;3.43;;;22.00;99.90;;;;;;5092347;28;20457;-73
2022/05/20 07:01:05;;;;;;;5.00;3.70;;;22.10;99.90;;;;;;5092734;28;20457;-70
2022/05/20 07:03:33;;;;;;;3.90;3.47;;;22.10;99.90;;;;;;5093313;28;20895;-71
2022/05/20 07:06:00;;;;;;;4.17;3.77;;;22.20;99.90;;;;;;5093856;28;20492;-70
2022/05/20 07:08:28;;;;;;;6.00;3.90;;;22.30;99.90;;;;;;5090626;28;20832;-70
2022/05/20 07:10:54;;;;;;;4.03;3.67;;;22.40;99.90;;;;;;5090998;28;20458;-70
2022/05/20 07:13:21;;;;;;;7.70;3.80;;;22.60;99.90;;;;;;5091691;28;20493;-70
2022/05/20 07:15:48;;;;;;;5.90;4.13;;;22.70;99.90;;;;;;5091794;28;20540;-70
2022/05/20 07:18:15;;;;;;;4.43;3.20;;;22.80;99.90;;;;;;5091712;28;20480;-72
2022/05/20 07:20:42;;;;;;;3.90;3.60;;;22.90;99.90;;;;;;5092163;28;20820;-70
2022/05/20 07:23:09;;;;;;;5.43;3.97;;;23.10;99.90;;;;;;5091429;28;20481;-72
2022/05/20 07:25:37;;;;;;;4.50;4.10;;;23.20;99.90;;;;;;5091677;28;20489;-70
2022/05/20 07:28:05;;;;;;;5.30;4.00;;;23.40;99.90;;;;;;5091498;28;20461;-70
2022/05/20 07:30:32;;;;;;;4.80;4.40;;;23.40;99.90;;;;;;5091928;28;20554;-70
2022/05/20 07:32:59;;;;;;;5.70;3.60;;;23.50;99.90;;;;;;5089072;28;20489;-71
2022/05/20 07:35:26;;;;;;;3.90;3.60;;;23.60;99.90;;;;;;5090967;28;20462;-72
2022/05/20 07:37:53;;;;;;;5.10;4.60;;;23.60;99.90;;;;;;5091228;28;20468;-70
2022/05/20 07:40:22;;;;;;;8.63;4.13;;;23.70;99.90;;;;;;5091510;28;20462;-70
2022/05/20 07:42:51;;;;;;;4.20;3.80;;;23.80;99.90;;;;;;5091279;28;20477;-70
2022/05/20 07:45:18;;;;;;;5.23;3.93;;;23.90;99.90;;;;;;5091215;28;20482;-71
2022/05/20 07:47:45;;;;;;;4.73;3.90;;;23.90;99.90;;;;;;5090367;28;20832;-73
2022/05/20 07:50:13;;;;;;;5.97;3.60;;;24.10;99.90;;;;;;5091222;28;20510;-70
2022/05/20 07:55:32;;;;;;;5.93;3.90;;;24.30;99.90;;;;;;5092090;28;20436;-70
2022/05/20 07:58:02;;;;;;;6.00;4.13;;;24.30;99.90;;;;;;5091201;28;20465;-71
2022/05/20 08:00:29;;;;;;;6.70;4.10;;;24.40;99.90;;;;;;5091022;28;20496;-70
2022/05/20 08:03:00;;;;;;;4.10;3.80;;;24.50;99.90;;;;;;5091015;28;20488;-71
2022/05/20 08:05:27;;;;;;;4.30;3.90;;;24.40;99.90;;;;;;5091401;28;20486;-70
2022/05/20 08:08:00;;;;;;;4.87;3.87;;;24.40;99.90;;;;;;5088773;28;20461;-72
2022/05/20 08:10:28;;;;;;;4.60;4.17;;;24.40;99.90;;;;;;5091627;28;20457;-71
2022/05/20 08:12:55;;;;;;;4.53;4.00;;;24.50;99.90;;;;;;5090988;28;20507;-70
2022/05/20 08:15:24;;;;;;;4.70;4.30;;;24.60;99.90;;;;;;5091167;28;20457;-70
2022/05/20 08:17:51;;;;;;;4.83;4.30;;;24.70;99.90;;;;;;5091228;28;20971;-70
2022/05/20 08:20:22;;;;;;;4.00;3.70;;;24.90;99.90;;;;;;5091210;28;20449;-70
2022/05/20 08:22:49;;;;;;;3.90;3.60;;;25.00;99.90;;;;;;5090906;28;20484;-70
2022/05/20 08:25:16;;;;;;;4.40;4.00;;;25.10;99.90;;;;;;5091143;28;20485;-71
2022/05/20 08:27:43;;;;;;;3.93;3.50;;;25.30;99.90;;;;;;5091141;28;20464;-70
2022/05/20 08:30:14;;;;;;;3.90;3.50;;;25.40;99.90;;;;;;5090754;28;21338;-71
2022/05/20 08:32:42;;;;;;;4.03;3.70;;;25.50;99.90;;;;;;5090191;28;20480;-70
2022/05/20 08:35:10;;;;;;;4.67;4.27;;;25.60;99.90;;;;;;5090835;28;20465;-70
2022/05/20 08:37:38;;;;;;;4.97;4.03;;;25.70;99.90;;;;;;5090442;28;20464;-70
2022/05/20 08:40:08;;;;;;;5.33;4.20;;;25.80;99.90;;;;;;5090462;28;20462;-70
2022/05/20 08:42:35;;;;;;;4.83;4.23;;;25.80;99.90;;;;;;5090919;28;20882;-72
2022/05/20 08:45:03;;;;;;;6.80;4.37;;;26.00;99.90;;;;;;5090219;28;20581;-70
2022/05/20 08:47:38;;;;;;;4.77;4.47;;;26.10;99.90;;;;;;5091279;28;20461;-69
2022/05/20 08:50:12;;;;;;;4.77;4.37;;;26.20;99.50;;;;;;5089940;28;20518;-70
2022/05/20 08:52:39;;;;;;;5.30;3.60;;;26.30;99.30;;;;;;5090320;28;20509;-72
2022/05/20 08:55:07;;;;;;;4.97;4.47;;;26.30;99.20;;;;;;5090759;28;20536;-70
2022/05/20 08:57:34;;;;;;;4.80;4.20;;;26.40;99.90;;;;;;5090659;28;20438;-70
2022/05/20 09:00:04;;;;;;;4.97;4.20;;;26.60;99.90;;;;;;5090126;28;21179;-70
2022/05/20 09:02:30;;;;;;;4.40;4.00;;;26.80;99.30;;;;;;5090155;28;20848;-70
2022/05/20 09:04:57;;;;;;;4.20;3.80;;;27.00;99.10;;;;;;5090311;28;20485;-70
2022/05/20 09:07:26;;;;;;;5.73;4.07;;;27.10;99.00;;;;;;5090453;28;20882;-71
2022/05/20 09:10:01;;;;;;;4.60;4.03;;;27.20;97.80;;;;;;5089301;28;20468;-75
2022/05/20 09:12:31;;;;;;;4.60;4.07;;;27.20;96.70;;;;;;5091052;28;20976;-71
2022/05/20 09:17:49;;;;;;;5.97;5.23;;;27.10;97.80;;;;;;5089337;28;20476;-72
2022/05/20 09:20:20;;;;;;;5.73;4.30;;;27.40;98.40;;;;;;5089604;28;20945;-71
2022/05/20 09:22:58;;;;;;;6.03;3.83;;;27.50;97.50;;;;;;5089547;28;20574;-70
2022/05/20 09:25:28;;;;;;;7.07;4.33;;;27.60;97.20;;;;;;5089708;28;20489;-70
2022/05/20 09:28:15;;;;;;;4.80;4.10;;;27.90;95.90;;;;;;5090649;28;20468;-70
2022/05/20 09:30:46;;;;;;;4.47;3.57;;;28.00;96.00;;;;;;5090146;28;20458;-70
2022/05/20 09:33:19;;;;;;;7.40;3.60;;;28.00;95.40;;;;;;5087819;28;20478;-70
2022/05/20 09:35:51;;;;;;;7.30;4.70;;;28.10;95.00;;;;;;5089454;28;20464;-70
2022/05/20 09:38:35;;;;;;;4.50;4.10;;;28.20;95.30;;;;;;5088953;28;20959;-70
2022/05/20 09:41:12;;;;;;;5.40;4.40;;;28.60;96.10;;;;;;5089534;28;20465;-70
2022/05/20 09:43:41;;;;;;;7.87;4.67;;;28.70;95.20;;;;;;5090009;28;20878;-71
2022/05/20 09:46:27;;;;;;;5.20;3.80;;;28.70;94.60;;;;;;5089039;28;20553;-71
2022/05/20 09:48:59;;;;;;;5.83;3.73;;;28.80;94.50;;;;;;5089191;28;20956;-71
2022/05/20 09:51:38;;;;;;;6.90;3.90;;;28.80;94.20;;;;;;5090034;28;20979;-71
2022/05/20 09:54:16;;;;;;;5.27;4.30;;;28.80;94.00;;;;;;5089789;28;20465;-70
2022/05/20 09:56:46;;;;;;;6.10;4.70;;;28.70;94.00;;;;;;5089814;28;21008;-70
2022/05/20 09:59:25;;;;;;;4.63;4.13;;;28.60;93.50;;;;;;5089251;28;20836;-70
2022/05/20 10:01:58;;;;;;;4.60;4.13;;;28.60;94.80;;;;;;5089298;28;20479;-71
2022/05/20 10:04:35;;;;;;;6.87;4.03;;;28.70;94.60;;;;;;5090258;28;20460;-70
2022/05/20 10:07:03;;;;;;;4.10;3.80;;;29.00;94.10;;;;;;5089540;28;20477;-72
2022/05/20 10:09:39;;;;;;;4.90;4.13;;;29.10;94.80;;;;;;5089457;28;20480;-73
2022/05/20 10:12:11;;;;;;;4.27;3.87;;;29.30;94.20;;;;;;5089457;28;20486;-71
2022/05/20 10:14:45;;;;;;;6.13;4.60;;;29.60;94.40;;;;;;5089748;28;20484;-70
2022/05/20 10:17:24;;;;;;;6.43;3.80;;;29.90;94.60;;;;;;5089320;28;20462;-70
2022/05/20 10:19:56;;;;;;;3.83;3.50;;;30.00;92.60;;;;;;5089051;28;20467;-72
2022/05/20 10:22:29;;;;;;;6.57;4.23;;;30.00;90.90;;;;;;5089619;28;20877;-71
2022/05/20 10:25:03;;;;;;;3.80;3.50;;;30.00;91.90;;;;;;5089361;28;20460;-71
2022/05/20 10:27:37;;;;;;;5.37;3.80;;;30.30;92.10;;;;;;5090030;28;20469;-70
2022/05/20 10:32:57;;;;;;;5.27;3.60;;;30.50;88.30;;;;;;5093492;28;20827;-71
2022/05/20 10:35:33;;;;;;;7.10;3.73;;;30.60;89.00;;;;;;5113828;22;20470;-92
2022/05/20 10:38:21;;;;;;;3.97;3.57;;;30.90;86.50;;;;;;5094575;28;20465;-93
2022/05/20 10:41:00;;;;;;;7.37;3.37;;;31.00;89.90;;;;;;5096705;28;20538;-93
2022/05/20 10:49:31;;;;;;;4.23;3.83;;;31.10;88.70;;;;;;5095212;28;20448;-90
2022/05/20 10:52:09;;;;;;;7.17;4.50;;;31.00;85.40;;;;;;5097557;28;20464;-90
2022/05/20 10:54:49;;;;;;;3.87;3.53;;;31.10;89.90;;;;;;5097319;28;20455;-92
2022/05/20 10:57:52;;;;;;;4.87;3.70;;;31.20;88.20;;;;;;5099052;28;20482;-91
2022/05/20 11:00:26;;;;;;;5.00;3.63;;;31.20;87.50;;;;;;5097995;28;20968;-91
2022/05/20 11:03:18;;;;;;;7.77;3.40;;;31.20;86.50;;;;;;5098019;28;20457;-91
2022/05/20 11:06:12;;;;;;;6.67;3.67;;;31.20;85.20;;;;;;5097703;28;20488;-91
2022/05/20 11:12:29;;;;;;;4.30;3.17;;;31.50;85.50;;;;;;5097406;28;20550;-90
2022/05/20 11:15:25;;;;;;;3.93;3.50;;;31.70;84.70;;;;;;5095694;28;20823;-91
2022/05/20 11:18:06;;;;;;;6.00;3.80;;;31.70;89.90;;;;;;5092718;28;20488;-90
2022/05/20 11:20:58;;;;;;;7.50;3.97;;;31.90;86.30;;;;;;5098962;28;20453;-91
2022/05/20 11:23:42;;;;;;;4.17;3.77;;;31.90;81.80;;;;;;5108061;28;20451;-94
2022/05/20 11:26:33;;;;;;;8.07;4.23;;;31.90;83.90;;;;;;5124593;22;20468;-76
2022/05/20 11:29:33;;;;;;;5.83;3.80;;;31.90;82.80;;;;;;5091621;28;20453;-77
2022/05/20 11:32:04;;;;;;;4.57;4.03;;;32.00;86.10;;;;;;5078994;28;20831;-73
2022/05/20 11:34:54;;;;;;;6.30;4.33;;;32.00;84.40;;;;;;5092734;28;20459;-73
2022/05/20 11:37:42;;;;;;;5.43;4.10;;;32.10;85.70;;;;;;5092066;28;20463;-73
2022/05/20 11:40:22;;;;;;;4.40;4.00;;;32.30;85.10;;;;;;5091720;28;20456;-73
2022/05/20 11:43:04;;;;;;;4.20;3.50;;;32.40;86.50;;;;;;5091103;28;20484;-73
2022/05/20 11:45:43;;;;;;;3.10;2.90;;;32.40;82.80;;;;;;5091482;28;20490;-73
2022/05/20 11:48:37;;;;;;;5.47;3.80;;;32.50;84.50;;;;;;5091773;28;20485;-73
2022/05/20 11:51:26;;;;;;;5.97;3.93;;;32.20;83.60;;;;;;5092245;28;20466;-74
2022/05/20 11:53:57;;;;;;;4.50;3.80;;;31.80;82.30;;;;;;5092466;28;20452;-74
2022/05/20 11:56:30;;;;;;;8.07;4.17;;;31.60;82.80;;;;;;5093004;28;20503;-77
2022/05/20 11:59:02;;;;;;;5.50;4.27;;;31.50;82.80;;;;;;5091880;28;20533;-77
2022/05/20 12:01:30;;;;;;;8.50;4.10;;;31.50;83.20;;;;;;5091426;28;20523;-77
2022/05/20 12:04:08;;;;;;;5.20;3.70;;;31.30;86.20;;;;;;5092360;28;20550;-75
2022/05/20 12:06:41;;;;;;;3.70;3.40;;;31.10;84.70;;;;;;5091636;28;20487;-76
2022/05/20 12:09:27;;;;;;;8.50;4.03;;;31.10;88.50;;;;;;5092002;28;20464;-77
2022/05/20 12:12:13;;;;;;;6.67;3.80;;;31.10;85.30;;;;;;5091380;28;20492;-78
2022/05/20 12:15:01;;;;;;;4.67;3.70;;;30.90;83.90;;;;;;5091693;28;20472;-75
2022/05/20 12:17:30;;;;;;;5.70;3.63;;;30.90;84.50;;;;;;5091341;28;21248;-74
2022/05/20 12:25:42;;;;;;;6.43;4.17;;;31.00;84.00;;;;;;5090876;28;20995;-77
2022/05/20 12:28:11;;;;;;;6.23;3.57;;;30.90;81.80;;;;;;5090747;28;20843;-76
2022/05/20 12:30:41;;;;;;;10.27;4.00;;;30.70;83.70;;;;;;5090855;28;20549;-76
2022/05/20 12:33:24;;;;;;;6.27;3.60;;;30.90;82.30;;;;;;5091121;28;21165;-76
2022/05/20 12:36:33;;;;;;;4.90;3.37;;;31.10;80.00;;;;;;5091164;28;20932;-73
2022/05/20 12:39:16;;;;;;;6.10;3.23;;;31.40;81.60;;;;;;5048049;28;20955;-75
2022/05/20 12:41:45;;;;;;;5.50;3.70;;;31.60;80.70;;;;;;5089463;28;20493;-74
2022/05/20 12:44:32;;;;;;;5.57;3.40;;;31.40;78.40;;;;;;5090886;28;20475;-74
2022/05/20 12:47:32;;;;;;;3.97;3.03;;;31.10;79.30;;;;;;5091239;28;20483;-75
2022/05/20 12:50:07;;;;;;;6.00;4.23;;;31.30;80.10;;;;;;5088001;28;20509;-76
2022/05/20 12:52:46;;;;;;;4.20;3.80;;;31.20;78.40;;;;;;5090408;28;20472;-75
2022/05/20 12:55:17;;;;;;;6.20;3.50;;;31.40;78.50;;;;;;5091152;28;20814;-78
2022/05/20 12:57:53;;;;;;;5.33;3.20;;;31.50;79.00;;;;;;5091169;28;20456;-74
2022/05/20 13:00:28;;;;;;;4.87;3.27;;;31.80;79.20;;;;;;5090913;28;20464;-75
2022/05/20 13:02:58;;;;;;;4.63;3.37;;;31.90;79.80;;;;;;5090651;28;20891;-75
2022/05/20 13:05:31;;;;;;;7.10;3.07;;;32.10;79.80;;;;;;5090678;28;20455;-75
2022/05/20 13:08:03;;;;;;;4.37;3.47;;;32.40;78.40;;;;;;5090919;28;20762;-75
2022/05/20 13:10:33;;;;;;;3.90;3.27;;;32.50;79.60;;;;;;5090978;28;20488;-75
2022/05/20 13:13:03;;;;;;;4.60;3.37;;;32.40;77.30;;;;;;5090768;28;20572;-75
2022/05/20 13:15:30;;;;;;;3.70;2.90;;;32.50;78.60;;;;;;5090217;28;20456;-71
2022/05/20 13:18:01;;;;;;;6.47;3.23;;;32.50;74.50;;;;;;5090485;28;20453;-71
2022/05/20 13:20:32;;;;;;;6.67;3.00;;;32.40;75.00;;;;;;5093026;28;20451;-71
2022/05/20 13:23:02;;;;;;;5.20;3.50;;;32.40;75.30;;;;;;5090797;28;20506;-75
2022/05/20 13:25:29;;;;;;;7.40;4.13;;;32.60;76.50;;;;;;5089957;28;20458;-75
2022/05/20 13:27:56;;;;;;;5.23;3.37;;;32.70;76.00;;;;;;5089733;28;20487;-71
2022/05/20 13:30:25;;;;;;;4.13;3.33;;;32.90;75.00;;;;;;5090443;28;20933;-75
2022/05/20 13:32:52;;;;;;;4.43;3.37;;;32.90;75.60;;;;;;5091053;28;20513;-76
2022/05/20 13:35:19;;;;;;;5.03;3.90;;;32.90;74.90;;;;;;5090683;28;20460;-75
2022/05/20 13:37:49;;;;;;;4.53;3.30;;;33.00;75.20;;;;;;5090125;28;20844;-75
2022/05/20 13:40:24;;;;;;;5.00;3.30;;;33.10;79.30;;;;;;5090144;28;20889;-71
2022/05/20 13:42:53;;;;;;;4.80;3.50;;;33.20;75.90;;;;;;5090103;28;20514;-71
2022/05/20 13:49:12;;;;;;;4.47;3.27;;;33.20;77.60;;;;;;5090388;28;20465;-71
2022/05/20 13:50:59;;;;;;;5.27;3.30;;;33.30;78.80;;;;;;5089748;28;20444;-72
2022/05/20 13:53:26;;;;;;;3.80;3.40;;;33.40;74.90;;;;;;5089712;28;21007;-71
2022/05/20 13:55:55;;;;;;;8.47;3.67;;;33.30;75.30;;;;;;5090280;28;20464;-71